sensor_id;sensor_type;location;lat;lon;timestamp;pressure;altitude;pressure_sealevel;temperature;humidity
75188;BME280;63762;51.334;22.108;2022-12-18T00:05:52;103040.77;;;-6.34;83.06
75188;BME280;63762;51.334;22.108;2022-12-18T00:16:02;103049.28;;;-6.41;83.40
75188;BME280;63762;51.334;22.108;2022-12-18T00:26:10;103060.77;;;-6.36;83.22
75188;BME280;63762;51.334;22.108;2022-12-18T00:36:16;103062.73;;;-6.27;83.47
75188;BME280;63762;51.334;22.108;2022-12-18T00:46:20;103074.02;;;-6.30;83.87
75188;BME280;63762;51.334;22.108;2022-12-18T00:56:27;103085.66;;;-6.19;83.60
75188;BME280;63762;51.334;22.108;2022-12-18T01:06:34;103110.94;;;-6.21;84.23
75188;BME280;63762;51.334;22.108;2022-12-18T01:16:41;103109.47;;;-6.10;84.14
75188;BME280;63762;51.334;22.108;2022-12-18T01:26:48;103120.27;;;-5.98;83.97
75188;BME280;63762;51.334;22.108;2022-12-18T01:36:55;103123.84;;;-5.94;83.92
75188;BME280;63762;51.334;22.108;2022-12-18T01:47:03;103136.20;;;-5.90;84.01
75188;BME280;63762;51.334;22.108;2022-12-18T01:57:10;103150.24;;;-5.87;83.86
75188;BME280;63762;51.334;22.108;2022-12-18T02:17:42;103172.27;;;-5.79;84.04
75188;BME280;63762;51.334;22.108;2022-12-18T02:27:46;103176.73;;;-5.75;84.46
75188;BME280;63762;51.334;22.108;2022-12-18T02:37:50;103173.59;;;-5.62;83.42
75188;BME280;63762;51.334;22.108;2022-12-18T02:47:54;103187.89;;;-5.48;82.99
75188;BME280;63762;51.334;22.108;2022-12-18T02:58:05;103210.88;;;-5.38;83.17
75188;BME280;63762;51.334;22.108;2022-12-18T03:08:26;103199.23;;;-5.15;82.54
75188;BME280;63762;51.334;22.108;2022-12-18T03:18:34;103221.91;;;-5.17;82.99
75188;BME280;63762;51.334;22.108;2022-12-18T03:28:39;103225.80;;;-5.00;82.19
75188;BME280;63762;51.334;22.108;2022-12-18T03:38:42;103240.02;;;-4.92;82.09
75188;BME280;63762;51.334;22.108;2022-12-18T03:48:48;103261.98;;;-4.87;82.67
75188;BME280;63762;51.334;22.108;2022-12-18T03:58:53;103265.92;;;-4.70;81.33
75188;BME280;63762;51.334;22.108;2022-12-18T04:08:58;103274.91;;;-4.58;80.89
75188;BME280;63762;51.334;22.108;2022-12-18T04:18:59;103288.82;;;-4.62;81.26
75188;BME280;63762;51.334;22.108;2022-12-18T04:29:00;103300.04;;;-4.70;80.97
75188;BME280;63762;51.334;22.108;2022-12-18T04:39:04;103322.96;;;-4.62;81.41
75188;BME280;63762;51.334;22.108;2022-12-18T04:49:11;103352.66;;;-4.64;81.65
75188;BME280;63762;51.334;22.108;2022-12-18T04:59:18;103352.02;;;-4.53;80.74
75188;BME280;63762;51.334;22.108;2022-12-18T05:09:26;103372.29;;;-4.49;81.46
75188;BME280;63762;51.334;22.108;2022-12-18T05:19:33;103381.36;;;-4.35;80.58
75188;BME280;63762;51.334;22.108;2022-12-18T05:29:40;103399.68;;;-4.38;80.76
75188;BME280;63762;51.334;22.108;2022-12-18T05:39:47;103409.48;;;-4.31;80.87
75188;BME280;63762;51.334;22.108;2022-12-18T05:49:55;103406.03;;;-4.30;80.96
75188;BME280;63762;51.334;22.108;2022-12-18T06:00:02;103409.55;;;-4.28;81.04
75188;BME280;63762;51.334;22.108;2022-12-18T06:10:09;103444.91;;;-4.16;80.48
75188;BME280;63762;51.334;22.108;2022-12-18T06:20:16;103458.16;;;-4.11;80.22
75188;BME280;63762;51.334;22.108;2022-12-18T06:30:23;103486.13;;;-4.13;80.32
75188;BME280;63762;51.334;22.108;2022-12-18T06:40:30;103497.51;;;-4.14;80.25
75188;BME280;63762;51.334;22.108;2022-12-18T06:50:37;103515.04;;;-4.13;79.75
75188;BME280;63762;51.334;22.108;2022-12-18T07:00:44;103518.45;;;-4.17;78.30
75188;BME280;63762;51.334;22.108;2022-12-18T07:10:52;103547.72;;;-4.02;77.75
75188;BME280;63762;51.334;22.108;2022-12-18T07:21:09;103554.78;;;-4.01;77.70
75188;BME280;63762;51.334;22.108;2022-12-18T07:31:13;103570.91;;;-3.86;78.41
75188;BME280;63762;51.334;22.108;2022-12-18T07:41:15;103589.48;;;-3.80;77.24
75188;BME280;63762;51.334;22.108;2022-12-18T07:51:20;103612.35;;;-3.76;76.47
75188;BME280;63762;51.334;22.108;2022-12-18T08:01:27;103611.29;;;-3.84;75.14
75188;BME280;63762;51.334;22.108;2022-12-18T08:11:35;103630.60;;;-3.84;75.93
75188;BME280;63762;51.334;22.108;2022-12-18T08:21:41;103645.88;;;-3.69;74.96
75188;BME280;63762;51.334;22.108;2022-12-18T08:31:49;103657.27;;;-3.69;75.60
75188;BME280;63762;51.334;22.108;2022-12-18T08:41:56;103672.91;;;-3.73;75.40
75188;BME280;63762;51.334;22.108;2022-12-18T08:52:08;103672.25;;;-3.65;75.12
75188;BME280;63762;51.334;22.108;2022-12-18T09:02:11;103690.13;;;-3.53;75.30
75188;BME280;63762;51.334;22.108;2022-12-18T09:12:17;103707.91;;;-3.43;76.51
75188;BME280;63762;51.334;22.108;2022-12-18T09:22:24;103719.81;;;-3.23;75.84
75188;BME280;63762;51.334;22.108;2022-12-18T09:32:31;103728.88;;;-3.11;74.90
75188;BME280;63762;51.334;22.108;2022-12-18T09:42:39;103740.23;;;-3.13;74.22
75188;BME280;63762;51.334;22.108;2022-12-18T09:52:49;103743.70;;;-3.16;74.20
75188;BME280;63762;51.334;22.108;2022-12-18T10:02:59;103754.12;;;-3.20;73.87
75188;BME280;63762;51.334;22.108;2022-12-18T10:23:23;103764.48;;;-3.26;71.89
75188;BME280;63762;51.334;22.108;2022-12-18T10:33:29;103765.80;;;-3.43;71.97
75188;BME280;63762;51.334;22.108;2022-12-18T10:43:36;103753.55;;;-3.07;70.97
75188;BME280;63762;51.334;22.108;2022-12-18T10:53:41;103757.84;;;-3.11;71.03
75188;BME280;63762;51.334;22.108;2022-12-18T11:03:58;103766.41;;;-3.19;70.94
75188;BME280;63762;51.334;22.108;2022-12-18T11:13:58;103793.99;;;-3.04;71.76
75188;BME280;63762;51.334;22.108;2022-12-18T11:24:00;103786.45;;;-2.90;70.66
75188;BME280;63762;51.334;22.108;2022-12-18T11:34:12;103795.05;;;-2.97;71.10
75188;BME280;63762;51.334;22.108;2022-12-18T11:44:31;103785.11;;;-3.09;71.64
75188;BME280;63762;51.334;22.108;2022-12-18T11:54:27;103806.32;;;-3.03;71.32
75188;BME280;63762;51.334;22.108;2022-12-18T12:55:57;103875.67;;;-3.35;71.76
75188;BME280;63762;51.334;22.108;2022-12-18T13:06:04;103908.75;;;-3.43;72.48
75188;BME280;63762;51.334;22.108;2022-12-18T13:16:10;103908.07;;;-3.37;72.84
75188;BME280;63762;51.334;22.108;2022-12-18T13:36:29;103940.87;;;-3.54;72.94
75188;BME280;63762;51.334;22.108;2022-12-18T13:56:47;103947.91;;;-3.83;73.22
75188;BME280;63762;51.334;22.108;2022-12-18T14:06:51;103973.50;;;-3.77;73.66
75188;BME280;63762;51.334;22.108;2022-12-18T14:16:54;103992.91;;;-3.74;72.77
75188;BME280;63762;51.334;22.108;2022-12-18T14:27:12;103995.90;;;-3.90;73.32
75188;BME280;63762;51.334;22.108;2022-12-18T14:37:10;104021.84;;;-4.00;72.96
75188;BME280;63762;51.334;22.108;2022-12-18T14:47:15;104010.61;;;-4.21;73.07
75188;BME280;63762;51.334;22.108;2022-12-18T14:57:24;104024.09;;;-4.37;73.46
75188;BME280;63762;51.334;22.108;2022-12-18T15:07:26;104024.93;;;-4.38;73.48
75188;BME280;63762;51.334;22.108;2022-12-18T15:17:28;104044.12;;;-4.41;73.08
75188;BME280;63762;51.334;22.108;2022-12-18T15:27:32;104046.59;;;-4.45;72.89
75188;BME280;63762;51.334;22.108;2022-12-18T15:37:36;104058.66;;;-4.50;73.15
75188;BME280;63762;51.334;22.108;2022-12-18T15:47:37;104048.61;;;-4.62;73.49
75188;BME280;63762;51.334;22.108;2022-12-18T15:57:38;104051.19;;;-4.64;73.91
75188;BME280;63762;51.334;22.108;2022-12-18T16:07:39;104054.66;;;-4.65;73.70
75188;BME280;63762;51.334;22.108;2022-12-18T16:17:42;104067.56;;;-4.71;73.05
75188;BME280;63762;51.334;22.108;2022-12-18T16:27:43;104082.98;;;-4.80;73.36
75188;BME280;63762;51.334;22.108;2022-12-18T16:37:45;104110.85;;;-5.07;74.00
75188;BME280;63762;51.334;22.108;2022-12-18T16:47:46;104121.83;;;-5.17;74.22
75188;BME280;63762;51.334;22.108;2022-12-18T16:57:47;104126.71;;;-5.26;74.27
75188;BME280;63762;51.334;22.108;2022-12-18T17:07:53;104126.28;;;-5.36;75.39
75188;BME280;63762;51.334;22.108;2022-12-18T17:18:01;104139.47;;;-5.35;74.86
75188;BME280;63762;51.334;22.108;2022-12-18T17:28:07;104144.83;;;-5.32;74.68
75188;BME280;63762;51.334;22.108;2022-12-18T17:38:15;104122.11;;;-5.53;75.08
75188;BME280;63762;51.334;22.108;2022-12-18T17:48:22;104121.05;;;-5.58;74.97
75188;BME280;63762;51.334;22.108;2022-12-18T17:58:29;104128.93;;;-5.79;74.86
75188;BME280;63762;51.334;22.108;2022-12-18T18:08:36;104154.23;;;-6.20;76.20
75188;BME280;63762;51.334;22.108;2022-12-18T18:18:44;104142.91;;;-6.40;77.40
75188;BME280;63762;51.334;22.108;2022-12-18T18:28:53;104151.50;;;-6.42;77.69
75188;BME280;63762;51.334;22.108;2022-12-18T18:38:58;104167.56;;;-6.35;77.86
75188;BME280;63762;51.334;22.108;2022-12-18T18:49:05;104178.00;;;-6.16;77.41
75188;BME280;63762;51.334;22.108;2022-12-18T18:59:12;104177.23;;;-6.13;77.11
75188;BME280;63762;51.334;22.108;2022-12-18T19:09:19;104186.70;;;-6.17;77.50
75188;BME280;63762;51.334;22.108;2022-12-18T19:19:27;104166.45;;;-6.21;77.29
75188;BME280;63762;51.334;22.108;2022-12-18T19:29:33;104198.56;;;-6.25;77.66
75188;BME280;63762;51.334;22.108;2022-12-18T19:39:40;104194.77;;;-6.12;77.63
75188;BME280;63762;51.334;22.108;2022-12-18T19:49:48;104192.73;;;-6.19;77.46
75188;BME280;63762;51.334;22.108;2022-12-18T19:59:55;104221.98;;;-6.09;77.33
75188;BME280;63762;51.334;22.108;2022-12-18T20:13:06;104211.78;;;-6.03;76.99
75188;BME280;63762;51.334;22.108;2022-12-18T20:23:14;104207.91;;;-5.92;76.71
75188;BME280;63762;51.334;22.108;2022-12-18T20:33:21;104218.69;;;-5.84;76.85
75188;BME280;63762;51.334;22.108;2022-12-18T20:43:28;104212.32;;;-5.91;76.85
75188;BME280;63762;51.334;22.108;2022-12-18T20:53:35;104223.20;;;-5.82;77.05
75188;BME280;63762;51.334;22.108;2022-12-18T21:03:43;104216.23;;;-5.80;77.07
75188;BME280;63762;51.334;22.108;2022-12-18T21:13:50;104196.90;;;-5.63;76.88
75188;BME280;63762;51.334;22.108;2022-12-18T21:23:57;104197.57;;;-5.67;76.41
75188;BME280;63762;51.334;22.108;2022-12-18T21:34:05;104186.87;;;-5.73;76.54
75188;BME280;63762;51.334;22.108;2022-12-18T21:44:15;104199.78;;;-5.98;77.34
75188;BME280;63762;51.334;22.108;2022-12-18T21:54:18;104221.62;;;-5.97;77.36
75188;BME280;63762;51.334;22.108;2022-12-18T22:04:25;104198.09;;;-6.16;77.86
75188;BME280;63762;51.334;22.108;2022-12-18T22:14:32;104182.38;;;-6.16;78.35
75188;BME280;63762;51.334;22.108;2022-12-18T22:24:39;104192.45;;;-6.25;78.49
75188;BME280;63762;51.334;22.108;2022-12-18T22:34:46;104176.77;;;-6.05;78.07
75188;BME280;63762;51.334;22.108;2022-12-18T22:44:53;104164.61;;;-6.03;78.29
75188;BME280;63762;51.334;22.108;2022-12-18T22:55:01;104142.34;;;-5.93;77.67
75188;BME280;63762;51.334;22.108;2022-12-18T23:05:08;104142.27;;;-5.95;76.93
75188;BME280;63762;51.334;22.108;2022-12-18T23:15:15;104113.99;;;-5.81;76.62
75188;BME280;63762;51.334;22.108;2022-12-18T23:25:23;104094.38;;;-5.69;76.57
75188;BME280;63762;51.334;22.108;2022-12-18T23:35:29;104100.59;;;-5.89;76.14
75188;BME280;63762;51.334;22.108;2022-12-18T23:45:37;104104.99;;;-5.88;76.25
75188;BME280;63762;51.334;22.108;2022-12-18T23:55:44;104111.07;;;-5.89;76.66
